sensor_id;sensor_type;location;lat;lon;timestamp;P1;durP1;ratioP1;P2;durP2;ratioP2
7110;SDS011;3597;42.650;23.386;2022-11-09T00:02:14;6.80;;;6.33;;
7110;SDS011;3597;42.650;23.386;2022-11-09T00:04:39;7.57;;;6.87;;
7110;SDS011;3597;42.650;23.386;2022-11-09T00:07:05;7.33;;;6.77;;
7110;SDS011;3597;42.650;23.386;2022-11-09T00:09:30;6.60;;;6.23;;
7110;SDS011;3597;42.650;23.386;2022-11-09T00:11:55;7.10;;;6.50;;
7110;SDS011;3597;42.650;23.386;2022-11-09T00:14:21;7.47;;;6.80;;
7110;SDS011;3597;42.650;23.386;2022-11-09T00:16:46;6.87;;;6.40;;
7110;SDS011;3597;42.650;23.386;2022-11-09T00:19:13;6.63;;;6.07;;
7110;SDS011;3597;42.650;23.386;2022-11-09T00:21:39;7.50;;;7.00;;
7110;SDS011;3597;42.650;23.386;2022-11-09T00:24:04;7.13;;;6.67;;
7110;SDS011;3597;42.650;23.386;2022-11-09T00:26:30;6.40;;;5.90;;
7110;SDS011;3597;42.650;23.386;2022-11-09T00:28:55;6.67;;;6.17;;
7110;SDS011;3597;42.650;23.386;2022-11-09T00:31:21;6.53;;;6.13;;
7110;SDS011;3597;42.650;23.386;2022-11-09T00:33:48;6.40;;;5.90;;
7110;SDS011;3597;42.650;23.386;2022-11-09T00:36:18;6.20;;;5.70;;
7110;SDS011;3597;42.650;23.386;2022-11-09T00:38:47;6.40;;;6.00;;
7110;SDS011;3597;42.650;23.386;2022-11-09T00:41:13;6.40;;;6.00;;
7110;SDS011;3597;42.650;23.386;2022-11-09T00:43:38;6.17;;;5.73;;
7110;SDS011;3597;42.650;23.386;2022-11-09T00:46:04;9.23;;;6.53;;
7110;SDS011;3597;42.650;23.386;2022-11-09T00:48:29;6.13;;;5.73;;
7110;SDS011;3597;42.650;23.386;2022-11-09T00:50:55;6.40;;;6.10;;
7110;SDS011;3597;42.650;23.386;2022-11-09T00:53:21;7.00;;;6.50;;
7110;SDS011;3597;42.650;23.386;2022-11-09T00:56:03;7.00;;;6.50;;
7110;SDS011;3597;42.650;23.386;2022-11-09T00:58:36;6.73;;;6.33;;
7110;SDS011;3597;42.650;23.386;2022-11-09T01:03:53;6.87;;;6.37;;
7110;SDS011;3597;42.650;23.386;2022-11-09T01:06:20;6.70;;;6.20;;
7110;SDS011;3597;42.650;23.386;2022-11-09T01:08:53;7.23;;;6.77;;
7110;SDS011;3597;42.650;23.386;2022-11-09T01:11:19;7.10;;;6.70;;
7110;SDS011;3597;42.650;23.386;2022-11-09T01:13:45;7.17;;;6.77;;
7110;SDS011;3597;42.650;23.386;2022-11-09T01:16:12;7.63;;;7.03;;
7110;SDS011;3597;42.650;23.386;2022-11-09T01:18:42;7.03;;;6.53;;
7110;SDS011;3597;42.650;23.386;2022-11-09T01:21:09;6.70;;;6.10;;
7110;SDS011;3597;42.650;23.386;2022-11-09T01:23:36;6.70;;;6.27;;
7110;SDS011;3597;42.650;23.386;2022-11-09T01:26:03;7.40;;;6.87;;
7110;SDS011;3597;42.650;23.386;2022-11-09T01:28:30;7.03;;;6.53;;
7110;SDS011;3597;42.650;23.386;2022-11-09T01:30:59;6.93;;;6.50;;
7110;SDS011;3597;42.650;23.386;2022-11-09T01:33:25;6.67;;;5.97;;
7110;SDS011;3597;42.650;23.386;2022-11-09T01:35:51;6.80;;;6.27;;
7110;SDS011;3597;42.650;23.386;2022-11-09T01:38:16;5.57;;;5.17;;
7110;SDS011;3597;42.650;23.386;2022-11-09T01:40:42;6.27;;;5.60;;
7110;SDS011;3597;42.650;23.386;2022-11-09T01:43:15;6.30;;;5.90;;
7110;SDS011;3597;42.650;23.386;2022-11-09T01:48:58;6.20;;;5.80;;
7110;SDS011;3597;42.650;23.386;2022-11-09T01:51:33;6.57;;;5.97;;
7110;SDS011;3597;42.650;23.386;2022-11-09T01:54:06;7.27;;;6.67;;
7110;SDS011;3597;42.650;23.386;2022-11-09T01:56:39;6.97;;;6.47;;
7110;SDS011;3597;42.650;23.386;2022-11-09T01:59:07;6.73;;;6.23;;
7110;SDS011;3597;42.650;23.386;2022-11-09T02:01:35;5.87;;;5.47;;
7110;SDS011;3597;42.650;23.386;2022-11-09T02:04:05;7.00;;;6.33;;
7110;SDS011;3597;42.650;23.386;2022-11-09T02:06:43;6.50;;;6.00;;
7110;SDS011;3597;42.650;23.386;2022-11-09T02:11:44;6.60;;;6.10;;
7110;SDS011;3597;42.650;23.386;2022-11-09T02:14:09;7.33;;;6.73;;
7110;SDS011;3597;42.650;23.386;2022-11-09T02:16:36;6.67;;;6.07;;
7110;SDS011;3597;42.650;23.386;2022-11-09T02:19:01;6.70;;;6.30;;
7110;SDS011;3597;42.650;23.386;2022-11-09T02:21:27;6.87;;;6.37;;
7110;SDS011;3597;42.650;23.386;2022-11-09T02:23:54;6.77;;;6.27;;
7110;SDS011;3597;42.650;23.386;2022-11-09T02:26:25;6.90;;;6.40;;
7110;SDS011;3597;42.650;23.386;2022-11-09T02:28:52;6.20;;;5.80;;
7110;SDS011;3597;42.650;23.386;2022-11-09T02:31:19;7.10;;;6.57;;
7110;SDS011;3597;42.650;23.386;2022-11-09T02:33:55;6.30;;;5.70;;
7110;SDS011;3597;42.650;23.386;2022-11-09T02:36:31;5.90;;;5.40;;
7110;SDS011;3597;42.650;23.386;2022-11-09T02:38:57;6.57;;;6.13;;
7110;SDS011;3597;42.650;23.386;2022-11-09T02:41:22;6.70;;;5.87;;
7110;SDS011;3597;42.650;23.386;2022-11-09T02:43:51;5.20;;;4.90;;
7110;SDS011;3597;42.650;23.386;2022-11-09T02:46:31;5.37;;;5.00;;
7110;SDS011;3597;42.650;23.386;2022-11-09T02:48:58;5.77;;;5.37;;
7110;SDS011;3597;42.650;23.386;2022-11-09T02:51:24;5.87;;;5.40;;
7110;SDS011;3597;42.650;23.386;2022-11-09T02:53:50;5.93;;;5.43;;
7110;SDS011;3597;42.650;23.386;2022-11-09T02:56:15;5.80;;;5.50;;
7110;SDS011;3597;42.650;23.386;2022-11-09T02:58:40;5.27;;;4.90;;
7110;SDS011;3597;42.650;23.386;2022-11-09T03:01:06;5.83;;;5.43;;
7110;SDS011;3597;42.650;23.386;2022-11-09T03:03:31;5.53;;;5.23;;
7110;SDS011;3597;42.650;23.386;2022-11-09T03:05:57;6.33;;;6.00;;
7110;SDS011;3597;42.650;23.386;2022-11-09T03:08:22;5.97;;;5.57;;
7110;SDS011;3597;42.650;23.386;2022-11-09T03:10:48;5.60;;;5.30;;
7110;SDS011;3597;42.650;23.386;2022-11-09T03:13:13;6.07;;;5.77;;
7110;SDS011;3597;42.650;23.386;2022-11-09T03:15:38;5.67;;;5.37;;
7110;SDS011;3597;42.650;23.386;2022-11-09T03:18:04;5.90;;;5.57;;
7110;SDS011;3597;42.650;23.386;2022-11-09T03:20:30;6.67;;;6.17;;
7110;SDS011;3597;42.650;23.386;2022-11-09T03:22:56;6.50;;;5.97;;
7110;SDS011;3597;42.650;23.386;2022-11-09T03:25:23;5.77;;;5.37;;
7110;SDS011;3597;42.650;23.386;2022-11-09T03:27:48;6.90;;;6.50;;
7110;SDS011;3597;42.650;23.386;2022-11-09T03:30:14;5.37;;;5.07;;
7110;SDS011;3597;42.650;23.386;2022-11-09T03:32:43;6.63;;;6.23;;
7110;SDS011;3597;42.650;23.386;2022-11-09T03:35:08;6.80;;;6.30;;
7110;SDS011;3597;42.650;23.386;2022-11-09T03:37:34;7.00;;;6.50;;
7110;SDS011;3597;42.650;23.386;2022-11-09T03:39:59;6.90;;;6.40;;
7110;SDS011;3597;42.650;23.386;2022-11-09T03:42:24;7.53;;;6.93;;
7110;SDS011;3597;42.650;23.386;2022-11-09T03:44:50;7.07;;;6.33;;
7110;SDS011;3597;42.650;23.386;2022-11-09T03:47:16;6.43;;;6.03;;
7110;SDS011;3597;42.650;23.386;2022-11-09T03:49:42;6.10;;;5.70;;
7110;SDS011;3597;42.650;23.386;2022-11-09T03:52:07;6.43;;;6.03;;
7110;SDS011;3597;42.650;23.386;2022-11-09T03:54:33;7.07;;;6.67;;
7110;SDS011;3597;42.650;23.386;2022-11-09T03:56:58;7.13;;;6.63;;
7110;SDS011;3597;42.650;23.386;2022-11-09T03:59:23;7.60;;;6.87;;
7110;SDS011;3597;42.650;23.386;2022-11-09T04:01:49;6.90;;;6.40;;
7110;SDS011;3597;42.650;23.386;2022-11-09T04:04:14;7.10;;;6.50;;
7110;SDS011;3597;42.650;23.386;2022-11-09T04:06:39;7.00;;;6.50;;
7110;SDS011;3597;42.650;23.386;2022-11-09T04:09:05;6.93;;;6.43;;
7110;SDS011;3597;42.650;23.386;2022-11-09T04:11:30;7.40;;;6.80;;
7110;SDS011;3597;42.650;23.386;2022-11-09T04:13:56;7.70;;;7.10;;
7110;SDS011;3597;42.650;23.386;2022-11-09T04:16:21;6.70;;;6.20;;
7110;SDS011;3597;42.650;23.386;2022-11-09T04:18:46;7.27;;;6.70;;
7110;SDS011;3597;42.650;23.386;2022-11-09T04:21:12;6.57;;;5.97;;
7110;SDS011;3597;42.650;23.386;2022-11-09T04:23:37;7.23;;;6.57;;
7110;SDS011;3597;42.650;23.386;2022-11-09T04:26:02;6.70;;;6.30;;
7110;SDS011;3597;42.650;23.386;2022-11-09T04:28:28;6.57;;;6.17;;
7110;SDS011;3597;42.650;23.386;2022-11-09T04:30:53;7.40;;;6.87;;
7110;SDS011;3597;42.650;23.386;2022-11-09T04:33:19;6.40;;;6.03;;
7110;SDS011;3597;42.650;23.386;2022-11-09T04:35:44;6.50;;;6.10;;
7110;SDS011;3597;42.650;23.386;2022-11-09T04:38:11;5.47;;;5.17;;
7110;SDS011;3597;42.650;23.386;2022-11-09T04:40:37;7.47;;;6.90;;
7110;SDS011;3597;42.650;23.386;2022-11-09T04:43:04;5.97;;;5.57;;
7110;SDS011;3597;42.650;23.386;2022-11-09T04:45:34;5.43;;;5.13;;
7110;SDS011;3597;42.650;23.386;2022-11-09T04:48:00;6.43;;;5.97;;
7110;SDS011;3597;42.650;23.386;2022-11-09T04:50:26;5.33;;;5.03;;
7110;SDS011;3597;42.650;23.386;2022-11-09T04:52:52;5.70;;;5.40;;
7110;SDS011;3597;42.650;23.386;2022-11-09T04:55:18;7.37;;;6.63;;
7110;SDS011;3597;42.650;23.386;2022-11-09T04:57:43;5.73;;;5.33;;
7110;SDS011;3597;42.650;23.386;2022-11-09T05:00:08;4.90;;;4.70;;
7110;SDS011;3597;42.650;23.386;2022-11-09T05:02:34;5.60;;;5.23;;
7110;SDS011;3597;42.650;23.386;2022-11-09T05:05:00;4.53;;;4.33;;
7110;SDS011;3597;42.650;23.386;2022-11-09T05:07:25;4.53;;;4.33;;
7110;SDS011;3597;42.650;23.386;2022-11-09T05:09:51;5.07;;;4.87;;
7110;SDS011;3597;42.650;23.386;2022-11-09T05:12:16;6.33;;;5.93;;
7110;SDS011;3597;42.650;23.386;2022-11-09T05:14:41;5.50;;;5.10;;
7110;SDS011;3597;42.650;23.386;2022-11-09T05:17:07;5.73;;;5.40;;
7110;SDS011;3597;42.650;23.386;2022-11-09T05:19:33;7.33;;;5.60;;
7110;SDS011;3597;42.650;23.386;2022-11-09T05:21:58;5.53;;;5.13;;
7110;SDS011;3597;42.650;23.386;2022-11-09T05:24:43;5.13;;;4.83;;
7110;SDS011;3597;42.650;23.386;2022-11-09T05:27:09;5.97;;;5.67;;
7110;SDS011;3597;42.650;23.386;2022-11-09T05:29:35;5.20;;;5.00;;
7110;SDS011;3597;42.650;23.386;2022-11-09T05:32:00;5.57;;;5.33;;
7110;SDS011;3597;42.650;23.386;2022-11-09T05:34:25;5.93;;;5.70;;
7110;SDS011;3597;42.650;23.386;2022-11-09T05:36:51;5.70;;;5.40;;
7110;SDS011;3597;42.650;23.386;2022-11-09T05:39:16;5.20;;;4.87;;
7110;SDS011;3597;42.650;23.386;2022-11-09T05:41:41;4.63;;;4.43;;
7110;SDS011;3597;42.650;23.386;2022-11-09T05:44:07;5.40;;;5.17;;
7110;SDS011;3597;42.650;23.386;2022-11-09T05:46:32;6.20;;;5.73;;
7110;SDS011;3597;42.650;23.386;2022-11-09T05:48:58;6.33;;;6.03;;
7110;SDS011;3597;42.650;23.386;2022-11-09T05:51:23;5.33;;;5.13;;
7110;SDS011;3597;42.650;23.386;2022-11-09T05:53:49;6.50;;;6.20;;
7110;SDS011;3597;42.650;23.386;2022-11-09T05:56:15;6.30;;;5.90;;
7110;SDS011;3597;42.650;23.386;2022-11-09T05:58:40;6.93;;;6.37;;
7110;SDS011;3597;42.650;23.386;2022-11-09T06:01:07;5.33;;;5.10;;
7110;SDS011;3597;42.650;23.386;2022-11-09T06:03:34;6.03;;;5.73;;
7110;SDS011;3597;42.650;23.386;2022-11-09T06:06:01;6.33;;;5.93;;
7110;SDS011;3597;42.650;23.386;2022-11-09T06:08:31;5.27;;;5.07;;
7110;SDS011;3597;42.650;23.386;2022-11-09T06:10:57;6.07;;;5.73;;
7110;SDS011;3597;42.650;23.386;2022-11-09T06:13:26;6.90;;;6.40;;
7110;SDS011;3597;42.650;23.386;2022-11-09T06:15:53;6.70;;;6.20;;
7110;SDS011;3597;42.650;23.386;2022-11-09T06:18:19;5.50;;;5.30;;
7110;SDS011;3597;42.650;23.386;2022-11-09T06:20:45;6.43;;;5.93;;
7110;SDS011;3597;42.650;23.386;2022-11-09T06:23:10;5.57;;;5.20;;
7110;SDS011;3597;42.650;23.386;2022-11-09T06:25:36;6.03;;;5.63;;
7110;SDS011;3597;42.650;23.386;2022-11-09T06:28:01;5.13;;;4.73;;
7110;SDS011;3597;42.650;23.386;2022-11-09T06:30:26;5.00;;;4.80;;
7110;SDS011;3597;42.650;23.386;2022-11-09T06:32:59;5.17;;;4.87;;
7110;SDS011;3597;42.650;23.386;2022-11-09T06:35:26;7.07;;;6.63;;
7110;SDS011;3597;42.650;23.386;2022-11-09T06:37:55;8.53;;;6.77;;
7110;SDS011;3597;42.650;23.386;2022-11-09T06:40:21;7.10;;;6.80;;
7110;SDS011;3597;42.650;23.386;2022-11-09T06:42:47;7.17;;;6.77;;
7110;SDS011;3597;42.650;23.386;2022-11-09T06:45:12;6.00;;;5.70;;
7110;SDS011;3597;42.650;23.386;2022-11-09T06:47:38;6.10;;;5.70;;
7110;SDS011;3597;42.650;23.386;2022-11-09T06:50:03;7.00;;;6.40;;
7110;SDS011;3597;42.650;23.386;2022-11-09T06:52:29;7.27;;;6.77;;
7110;SDS011;3597;42.650;23.386;2022-11-09T06:54:54;6.60;;;6.10;;
7110;SDS011;3597;42.650;23.386;2022-11-09T06:57:19;6.17;;;5.77;;
7110;SDS011;3597;42.650;23.386;2022-11-09T06:59:45;6.37;;;5.80;;
7110;SDS011;3597;42.650;23.386;2022-11-09T07:02:12;6.10;;;5.60;;
7110;SDS011;3597;42.650;23.386;2022-11-09T07:04:40;5.83;;;5.40;;
7110;SDS011;3597;42.650;23.386;2022-11-09T07:07:06;6.03;;;5.70;;
7110;SDS011;3597;42.650;23.386;2022-11-09T07:09:31;5.70;;;5.40;;
7110;SDS011;3597;42.650;23.386;2022-11-09T07:11:56;5.33;;;5.07;;
7110;SDS011;3597;42.650;23.386;2022-11-09T07:14:22;6.50;;;6.10;;
7110;SDS011;3597;42.650;23.386;2022-11-09T07:16:47;6.57;;;6.17;;
7110;SDS011;3597;42.650;23.386;2022-11-09T07:19:13;7.37;;;6.90;;
7110;SDS011;3597;42.650;23.386;2022-11-09T07:21:38;7.10;;;6.70;;
7110;SDS011;3597;42.650;23.386;2022-11-09T07:24:22;7.40;;;6.80;;
7110;SDS011;3597;42.650;23.386;2022-11-09T07:26:48;5.80;;;5.50;;
7110;SDS011;3597;42.650;23.386;2022-11-09T07:29:14;7.23;;;6.83;;
7110;SDS011;3597;42.650;23.386;2022-11-09T07:31:41;7.33;;;6.83;;
7110;SDS011;3597;42.650;23.386;2022-11-09T07:34:06;6.73;;;6.33;;
7110;SDS011;3597;42.650;23.386;2022-11-09T07:36:32;7.53;;;6.97;;
7110;SDS011;3597;42.650;23.386;2022-11-09T07:38:57;7.70;;;7.17;;
7110;SDS011;3597;42.650;23.386;2022-11-09T07:41:23;7.93;;;7.43;;
7110;SDS011;3597;42.650;23.386;2022-11-09T07:43:48;8.47;;;7.93;;
7110;SDS011;3597;42.650;23.386;2022-11-09T07:46:14;8.07;;;7.53;;
7110;SDS011;3597;42.650;23.386;2022-11-09T07:48:39;7.83;;;7.33;;
7110;SDS011;3597;42.650;23.386;2022-11-09T07:51:05;9.17;;;8.47;;
7110;SDS011;3597;42.650;23.386;2022-11-09T07:53:30;8.67;;;8.03;;
7110;SDS011;3597;42.650;23.386;2022-11-09T07:55:56;7.33;;;7.00;;
7110;SDS011;3597;42.650;23.386;2022-11-09T07:58:22;8.07;;;7.37;;
7110;SDS011;3597;42.650;23.386;2022-11-09T08:00:48;8.23;;;7.63;;
7110;SDS011;3597;42.650;23.386;2022-11-09T08:03:13;8.20;;;7.40;;
7110;SDS011;3597;42.650;23.386;2022-11-09T08:05:39;8.23;;;7.63;;
7110;SDS011;3597;42.650;23.386;2022-11-09T08:08:05;7.87;;;7.27;;
7110;SDS011;3597;42.650;23.386;2022-11-09T08:10:32;7.87;;;7.47;;
7110;SDS011;3597;42.650;23.386;2022-11-09T08:13:00;8.40;;;7.90;;
7110;SDS011;3597;42.650;23.386;2022-11-09T08:15:27;9.00;;;8.30;;
7110;SDS011;3597;42.650;23.386;2022-11-09T08:17:53;8.90;;;8.13;;
7110;SDS011;3597;42.650;23.386;2022-11-09T08:20:18;9.50;;;8.93;;
7110;SDS011;3597;42.650;23.386;2022-11-09T08:22:44;8.73;;;8.23;;
7110;SDS011;3597;42.650;23.386;2022-11-09T08:25:11;9.50;;;8.77;;
7110;SDS011;3597;42.650;23.386;2022-11-09T08:27:37;8.97;;;8.27;;
7110;SDS011;3597;42.650;23.386;2022-11-09T08:30:06;8.87;;;8.27;;
7110;SDS011;3597;42.650;23.386;2022-11-09T08:32:43;9.53;;;8.63;;
7110;SDS011;3597;42.650;23.386;2022-11-09T08:35:10;8.27;;;7.77;;
7110;SDS011;3597;42.650;23.386;2022-11-09T08:37:37;9.17;;;8.47;;
7110;SDS011;3597;42.650;23.386;2022-11-09T08:40:04;9.50;;;8.73;;
7110;SDS011;3597;42.650;23.386;2022-11-09T08:42:30;9.37;;;8.57;;
7110;SDS011;3597;42.650;23.386;2022-11-09T08:44:55;9.93;;;9.20;;
7110;SDS011;3597;42.650;23.386;2022-11-09T08:47:21;9.43;;;8.63;;
7110;SDS011;3597;42.650;23.386;2022-11-09T08:49:46;9.87;;;9.07;;
7110;SDS011;3597;42.650;23.386;2022-11-09T08:52:12;9.23;;;8.63;;
7110;SDS011;3597;42.650;23.386;2022-11-09T08:54:38;9.30;;;8.60;;
7110;SDS011;3597;42.650;23.386;2022-11-09T08:57:04;8.90;;;8.20;;
7110;SDS011;3597;42.650;23.386;2022-11-09T08:59:30;9.77;;;9.07;;
7110;SDS011;3597;42.650;23.386;2022-11-09T09:01:55;9.53;;;8.73;;
7110;SDS011;3597;42.650;23.386;2022-11-09T09:04:20;9.17;;;8.57;;
7110;SDS011;3597;42.650;23.386;2022-11-09T09:06:46;8.80;;;8.10;;
7110;SDS011;3597;42.650;23.386;2022-11-09T09:09:11;9.00;;;8.30;;
7110;SDS011;3597;42.650;23.386;2022-11-09T09:11:37;8.23;;;7.63;;
7110;SDS011;3597;42.650;23.386;2022-11-09T09:14:02;9.37;;;8.47;;
7110;SDS011;3597;42.650;23.386;2022-11-09T09:16:27;10.60;;;8.23;;
7110;SDS011;3597;42.650;23.386;2022-11-09T09:18:53;9.13;;;8.53;;
7110;SDS011;3597;42.650;23.386;2022-11-09T09:21:18;9.33;;;8.73;;
7110;SDS011;3597;42.650;23.386;2022-11-09T09:23:46;8.83;;;8.20;;
7110;SDS011;3597;42.650;23.386;2022-11-09T09:26:13;9.60;;;8.90;;
7110;SDS011;3597;42.650;23.386;2022-11-09T09:28:38;8.50;;;7.90;;
7110;SDS011;3597;42.650;23.386;2022-11-09T09:31:04;9.77;;;8.83;;
7110;SDS011;3597;42.650;23.386;2022-11-09T09:33:30;8.60;;;8.00;;
7110;SDS011;3597;42.650;23.386;2022-11-09T09:35:56;9.13;;;8.43;;
7110;SDS011;3597;42.650;23.386;2022-11-09T09:38:22;8.77;;;8.27;;
7110;SDS011;3597;42.650;23.386;2022-11-09T09:43:27;9.00;;;8.30;;
7110;SDS011;3597;42.650;23.386;2022-11-09T09:46:17;8.70;;;8.00;;
7110;SDS011;3597;42.650;23.386;2022-11-09T09:49:06;8.43;;;7.80;;
7110;SDS011;3597;42.650;23.386;2022-11-09T09:51:53;8.90;;;8.20;;
7110;SDS011;3597;42.650;23.386;2022-11-09T09:54:22;8.93;;;8.30;;
7110;SDS011;3597;42.650;23.386;2022-11-09T09:56:50;8.40;;;7.90;;
7110;SDS011;3597;42.650;23.386;2022-11-09T10:01:49;8.23;;;7.70;;
7110;SDS011;3597;42.650;23.386;2022-11-09T10:04:22;8.23;;;7.63;;
7110;SDS011;3597;42.650;23.386;2022-11-09T10:25:44;6.77;;;6.33;;
7110;SDS011;3597;42.650;23.386;2022-11-09T10:28:12;6.83;;;6.43;;
7110;SDS011;3597;42.650;23.386;2022-11-09T10:30:39;6.37;;;5.97;;
7110;SDS011;3597;42.650;23.386;2022-11-09T10:35:34;6.70;;;6.40;;
7110;SDS011;3597;42.650;23.386;2022-11-09T10:38:02;7.27;;;6.87;;
7110;SDS011;3597;42.650;23.386;2022-11-09T10:40:29;6.70;;;6.30;;
7110;SDS011;3597;42.650;23.386;2022-11-09T10:43:11;6.50;;;6.20;;
7110;SDS011;3597;42.650;23.386;2022-11-09T10:45:38;6.80;;;6.40;;
7110;SDS011;3597;42.650;23.386;2022-11-09T10:48:08;7.30;;;6.90;;
7110;SDS011;3597;42.650;23.386;2022-11-09T10:50:39;7.83;;;7.23;;
7110;SDS011;3597;42.650;23.386;2022-11-09T10:55:52;7.07;;;6.63;;
7110;SDS011;3597;42.650;23.386;2022-11-09T10:58:36;6.83;;;6.43;;
7110;SDS011;3597;42.650;23.386;2022-11-09T11:03:50;7.43;;;6.87;;
7110;SDS011;3597;42.650;23.386;2022-11-09T11:08:47;6.80;;;6.37;;
7110;SDS011;3597;42.650;23.386;2022-11-09T11:11:16;6.93;;;6.53;;
7110;SDS011;3597;42.650;23.386;2022-11-09T11:13:44;6.50;;;6.20;;
7110;SDS011;3597;42.650;23.386;2022-11-09T11:18:48;6.70;;;6.20;;
7110;SDS011;3597;42.650;23.386;2022-11-09T11:21:15;6.83;;;6.53;;
7110;SDS011;3597;42.650;23.386;2022-11-09T11:23:42;6.60;;;6.30;;
7110;SDS011;3597;42.650;23.386;2022-11-09T11:28:47;6.77;;;6.17;;
7110;SDS011;3597;42.650;23.386;2022-11-09T11:31:16;6.53;;;6.00;;
7110;SDS011;3597;42.650;23.386;2022-11-09T11:33:42;6.47;;;6.10;;
7110;SDS011;3597;42.650;23.386;2022-11-09T11:53:22;6.10;;;5.80;;
7110;SDS011;3597;42.650;23.386;2022-11-09T11:58:56;6.47;;;6.10;;
7110;SDS011;3597;42.650;23.386;2022-11-09T12:06:44;5.90;;;5.67;;
7110;SDS011;3597;42.650;23.386;2022-11-09T12:12:12;6.80;;;6.30;;
7110;SDS011;3597;42.650;23.386;2022-11-09T12:14:50;6.73;;;6.30;;
7110;SDS011;3597;42.650;23.386;2022-11-09T12:17:38;7.33;;;6.93;;
7110;SDS011;3597;42.650;23.386;2022-11-09T12:20:28;6.90;;;6.60;;
7110;SDS011;3597;42.650;23.386;2022-11-09T12:23:14;6.47;;;6.13;;
7110;SDS011;3597;42.650;23.386;2022-11-09T12:34:45;7.40;;;6.80;;
7110;SDS011;3597;42.650;23.386;2022-11-09T12:37:29;6.67;;;6.37;;
7110;SDS011;3597;42.650;23.386;2022-11-09T12:40:06;6.90;;;6.40;;
7110;SDS011;3597;42.650;23.386;2022-11-09T12:42:42;6.37;;;6.07;;
7110;SDS011;3597;42.650;23.386;2022-11-09T12:47:48;7.30;;;6.90;;
7110;SDS011;3597;42.650;23.386;2022-11-09T12:50:15;6.67;;;6.27;;
7110;SDS011;3597;42.650;23.386;2022-11-09T12:52:42;6.97;;;6.57;;
7110;SDS011;3597;42.650;23.386;2022-11-09T12:55:13;7.10;;;6.63;;
7110;SDS011;3597;42.650;23.386;2022-11-09T12:57:43;7.40;;;6.97;;
7110;SDS011;3597;42.650;23.386;2022-11-09T13:00:44;7.53;;;7.03;;
7110;SDS011;3597;42.650;23.386;2022-11-09T13:02:58;7.93;;;7.43;;
7110;SDS011;3597;42.650;23.386;2022-11-09T13:05:31;6.90;;;6.50;;
7110;SDS011;3597;42.650;23.386;2022-11-09T13:07:59;7.63;;;7.07;;
7110;SDS011;3597;42.650;23.386;2022-11-09T13:10:27;7.77;;;7.37;;
7110;SDS011;3597;42.650;23.386;2022-11-09T13:13:03;7.70;;;7.30;;
7110;SDS011;3597;42.650;23.386;2022-11-09T13:20:55;7.10;;;6.70;;
7110;SDS011;3597;42.650;23.386;2022-11-09T13:25:50;7.17;;;6.77;;
7110;SDS011;3597;42.650;23.386;2022-11-09T13:30:51;7.70;;;7.20;;
7110;SDS011;3597;42.650;23.386;2022-11-09T13:33:24;7.37;;;6.90;;
7110;SDS011;3597;42.650;23.386;2022-11-09T13:38:15;6.87;;;6.53;;
7110;SDS011;3597;42.650;23.386;2022-11-09T13:40:51;7.07;;;6.63;;
7110;SDS011;3597;42.650;23.386;2022-11-09T13:48:42;7.30;;;6.90;;
7110;SDS011;3597;42.650;23.386;2022-11-09T14:01:54;9.33;;;7.77;;
7110;SDS011;3597;42.650;23.386;2022-11-09T14:09:52;8.30;;;7.80;;
7110;SDS011;3597;42.650;23.386;2022-11-09T14:15:06;8.90;;;8.33;;
7110;SDS011;3597;42.650;23.386;2022-11-09T14:23:17;9.00;;;8.30;;
7110;SDS011;3597;42.650;23.386;2022-11-09T14:25:44;7.97;;;7.47;;
7110;SDS011;3597;42.650;23.386;2022-11-09T14:28:29;7.20;;;6.77;;
7110;SDS011;3597;42.650;23.386;2022-11-09T14:30:56;9.00;;;8.30;;
7110;SDS011;3597;42.650;23.386;2022-11-09T14:35:49;7.40;;;7.10;;
7110;SDS011;3597;42.650;23.386;2022-11-09T14:38:20;7.67;;;7.17;;
7110;SDS011;3597;42.650;23.386;2022-11-09T14:40:47;7.43;;;7.03;;
7110;SDS011;3597;42.650;23.386;2022-11-09T14:43:20;7.73;;;7.17;;
7110;SDS011;3597;42.650;23.386;2022-11-09T14:45:53;8.43;;;7.63;;
7110;SDS011;3597;42.650;23.386;2022-11-09T14:48:22;7.80;;;6.70;;
7110;SDS011;3597;42.650;23.386;2022-11-09T14:50:48;8.13;;;7.63;;
7110;SDS011;3597;42.650;23.386;2022-11-09T14:53:18;7.27;;;6.87;;
7110;SDS011;3597;42.650;23.386;2022-11-09T14:55:49;8.40;;;7.80;;
7110;SDS011;3597;42.650;23.386;2022-11-09T14:58:15;8.83;;;8.13;;
7110;SDS011;3597;42.650;23.386;2022-11-09T15:00:41;8.67;;;8.10;;
7110;SDS011;3597;42.650;23.386;2022-11-09T15:06:10;7.87;;;7.37;;
7110;SDS011;3597;42.650;23.386;2022-11-09T15:08:37;9.40;;;8.70;;
7110;SDS011;3597;42.650;23.386;2022-11-09T15:11:08;10.37;;;9.27;;
7110;SDS011;3597;42.650;23.386;2022-11-09T15:13:35;9.80;;;8.90;;
7110;SDS011;3597;42.650;23.386;2022-11-09T15:16:02;10.90;;;9.90;;
7110;SDS011;3597;42.650;23.386;2022-11-09T15:18:29;10.97;;;9.73;;
7110;SDS011;3597;42.650;23.386;2022-11-09T15:23:46;11.13;;;10.27;;
7110;SDS011;3597;42.650;23.386;2022-11-09T15:26:33;10.80;;;9.83;;
7110;SDS011;3597;42.650;23.386;2022-11-09T15:35:12;11.17;;;10.40;;
7110;SDS011;3597;42.650;23.386;2022-11-09T15:40:04;11.43;;;10.53;;
7110;SDS011;3597;42.650;23.386;2022-11-09T15:42:30;11.27;;;10.37;;
7110;SDS011;3597;42.650;23.386;2022-11-09T15:44:56;10.30;;;9.50;;
7110;SDS011;3597;42.650;23.386;2022-11-09T15:47:29;10.30;;;9.40;;
7110;SDS011;3597;42.650;23.386;2022-11-09T15:50:01;10.17;;;9.27;;
7110;SDS011;3597;42.650;23.386;2022-11-09T15:52:30;10.53;;;9.60;;
7110;SDS011;3597;42.650;23.386;2022-11-09T15:54:56;9.87;;;9.00;;
7110;SDS011;3597;42.650;23.386;2022-11-09T15:57:21;8.83;;;8.33;;
7110;SDS011;3597;42.650;23.386;2022-11-09T15:59:47;8.37;;;7.77;;
7110;SDS011;3597;42.650;23.386;2022-11-09T16:02:14;8.10;;;7.57;;
7110;SDS011;3597;42.650;23.386;2022-11-09T16:04:39;8.37;;;7.77;;
7110;SDS011;3597;42.650;23.386;2022-11-09T16:07:05;7.93;;;7.33;;
7110;SDS011;3597;42.650;23.386;2022-11-09T16:09:31;8.50;;;7.90;;
7110;SDS011;3597;42.650;23.386;2022-11-09T16:11:57;7.50;;;7.00;;
7110;SDS011;3597;42.650;23.386;2022-11-09T16:14:22;7.67;;;7.27;;
7110;SDS011;3597;42.650;23.386;2022-11-09T16:16:48;7.50;;;7.00;;
7110;SDS011;3597;42.650;23.386;2022-11-09T16:19:14;10.53;;;8.07;;
7110;SDS011;3597;42.650;23.386;2022-11-09T16:21:40;8.23;;;7.53;;
7110;SDS011;3597;42.650;23.386;2022-11-09T16:24:05;8.67;;;7.77;;
7110;SDS011;3597;42.650;23.386;2022-11-09T16:26:31;9.07;;;8.37;;
7110;SDS011;3597;42.650;23.386;2022-11-09T16:28:56;8.30;;;7.67;;
7110;SDS011;3597;42.650;23.386;2022-11-09T16:31:22;8.27;;;7.77;;
7110;SDS011;3597;42.650;23.386;2022-11-09T16:33:48;7.23;;;6.73;;
7110;SDS011;3597;42.650;23.386;2022-11-09T16:36:17;8.13;;;7.53;;
7110;SDS011;3597;42.650;23.386;2022-11-09T16:38:45;7.17;;;6.57;;
7110;SDS011;3597;42.650;23.386;2022-11-09T16:41:12;9.43;;;7.77;;
7110;SDS011;3597;42.650;23.386;2022-11-09T16:43:38;8.80;;;8.03;;
7110;SDS011;3597;42.650;23.386;2022-11-09T16:46:04;7.97;;;7.47;;
7110;SDS011;3597;42.650;23.386;2022-11-09T16:48:33;7.37;;;6.87;;
7110;SDS011;3597;42.650;23.386;2022-11-09T16:50:59;7.47;;;7.07;;
7110;SDS011;3597;42.650;23.386;2022-11-09T16:53:25;7.73;;;7.03;;
7110;SDS011;3597;42.650;23.386;2022-11-09T16:55:50;7.40;;;6.83;;
7110;SDS011;3597;42.650;23.386;2022-11-09T16:58:16;8.10;;;7.40;;
7110;SDS011;3597;42.650;23.386;2022-11-09T17:00:45;8.13;;;7.63;;
7110;SDS011;3597;42.650;23.386;2022-11-09T17:03:11;7.53;;;7.13;;
7110;SDS011;3597;42.650;23.386;2022-11-09T17:05:37;7.90;;;7.13;;
7110;SDS011;3597;42.650;23.386;2022-11-09T17:08:03;7.87;;;7.17;;
7110;SDS011;3597;42.650;23.386;2022-11-09T17:10:29;6.97;;;6.57;;
7110;SDS011;3597;42.650;23.386;2022-11-09T17:12:54;7.20;;;6.80;;
7110;SDS011;3597;42.650;23.386;2022-11-09T17:15:20;7.77;;;7.27;;
7110;SDS011;3597;42.650;23.386;2022-11-09T17:17:45;7.03;;;6.70;;
7110;SDS011;3597;42.650;23.386;2022-11-09T17:20:11;8.40;;;7.90;;
7110;SDS011;3597;42.650;23.386;2022-11-09T17:22:36;8.17;;;7.53;;
7110;SDS011;3597;42.650;23.386;2022-11-09T17:25:02;7.97;;;7.37;;
7110;SDS011;3597;42.650;23.386;2022-11-09T17:27:28;7.33;;;6.73;;
7110;SDS011;3597;42.650;23.386;2022-11-09T17:29:53;7.63;;;7.13;;
7110;SDS011;3597;42.650;23.386;2022-11-09T17:32:19;7.63;;;7.13;;